createdAt,value
2018-06-10T00:00:41.468Z,21.12
2018-06-10T00:01:51.683Z,21.12
2018-06-10T00:03:01.898Z,21.06
2018-06-10T00:04:11.800Z,21.12
2018-06-10T00:05:21.761Z,20.96
2018-06-10T00:06:32.128Z,21.01
2018-06-10T00:07:42.266Z,20.97
2018-06-10T00:08:53.399Z,21
2018-06-10T00:10:03.645Z,20.88
2018-06-10T00:11:13.905Z,20.83
2018-06-10T00:12:24.098Z,20.85
2018-06-10T00:13:33.980Z,20.81
2018-06-10T00:14:44.175Z,20.76
2018-06-10T00:15:54.329Z,20.75
2018-06-10T00:17:04.537Z,20.63
2018-06-10T00:18:14.747Z,20.6
2018-06-10T00:19:25.195Z,20.57
2018-06-10T00:20:35.338Z,20.56
2018-06-10T00:21:45.127Z,20.54
2018-06-10T00:22:55.280Z,20.57
2018-06-10T00:24:05.427Z,20.53
2018-06-10T00:25:15.589Z,20.46
2018-06-10T00:26:25.795Z,20.54
2018-06-10T00:27:35.999Z,20.49
2018-06-10T00:28:46.230Z,20.34
2018-06-10T00:29:56.384Z,20.41
2018-06-10T00:31:06.561Z,20.41
2018-06-10T00:32:16.753Z,20.43
2018-06-10T00:33:26.892Z,20.41
2018-06-10T00:34:37.270Z,20.31
2018-06-10T00:35:47.541Z,20.24
2018-06-10T00:36:57.242Z,20.3
2018-06-10T00:38:07.142Z,20.31
2018-06-10T00:39:17.409Z,20.21
2018-06-10T00:40:27.559Z,20.21
2018-06-10T00:41:37.725Z,20.17
2018-06-10T00:42:47.877Z,20.23
2018-06-10T00:43:58.135Z,20.2
2018-06-10T00:45:08.362Z,20.16
2018-06-10T00:46:18.503Z,20.2
2018-06-10T00:47:28.429Z,20.17
2018-06-10T00:48:38.630Z,20.14
2018-06-10T00:49:48.562Z,20.14
2018-06-10T00:50:58.722Z,20.14
2018-06-10T00:52:08.931Z,20.14
2018-06-10T00:53:19.088Z,20.16
2018-06-10T00:54:29.240Z,20.16
2018-06-10T00:55:39.453Z,20.16
2018-06-10T00:56:49.664Z,20.11
2018-06-10T00:58:00.068Z,20.16
2018-06-10T00:59:10.208Z,20.08
2018-06-10T01:00:20.348Z,20
2018-06-10T01:01:30.497Z,20.04
2018-06-10T01:02:40.664Z,20.05
2018-06-10T01:03:50.798Z,20.05
2018-06-10T01:05:00.939Z,20.05
2018-06-10T01:06:11.080Z,20.05
2018-06-10T01:07:21.257Z,20.04
2018-06-10T01:08:31.385Z,20.04
2018-06-10T01:09:41.566Z,20.04
2018-06-10T01:10:51.813Z,20.03
2018-06-10T01:12:02.016Z,20
2018-06-10T01:13:12.296Z,20.01
2018-06-10T01:14:22.547Z,20.01
2018-06-10T01:15:32.768Z,20
2018-06-10T01:16:42.968Z,20.03
2018-06-10T01:17:53.168Z,19.93
2018-06-10T01:19:03.356Z,20.03
2018-06-10T01:20:13.597Z,19.95
2018-06-10T01:21:23.828Z,19.98
2018-06-10T01:22:33.998Z,20
2018-06-10T01:23:44.237Z,19.98
2018-06-10T01:24:54.400Z,20
2018-06-10T01:26:04.513Z,20.03
2018-06-10T01:27:14.679Z,20.07
2018-06-10T01:28:24.815Z,20.12
2018-06-10T01:29:35.047Z,20.07
2018-06-10T01:30:45.172Z,20.05
2018-06-10T01:31:55.372Z,20.04
2018-06-10T01:33:05.540Z,19.98
2018-06-10T01:34:15.719Z,19.97
2018-06-10T01:35:25.632Z,19.95
2018-06-10T01:36:35.556Z,19.92
2018-06-10T01:37:45.693Z,19.9
2018-06-10T01:38:56.157Z,19.83
2018-06-10T01:40:06.577Z,19.82
2018-06-10T01:41:16.664Z,19.79
2018-06-10T01:42:26.863Z,19.79
2018-06-10T01:43:37.108Z,19.79
2018-06-10T01:44:47.322Z,19.71
2018-06-10T01:45:57.584Z,19.68
2018-06-10T01:47:07.739Z,19.73
2018-06-10T01:48:18.068Z,19.76
2018-06-10T01:49:27.859Z,19.76
2018-06-10T01:50:38.208Z,19.78
2018-06-10T01:51:48.340Z,19.85
2018-06-10T01:52:58.267Z,19.82
2018-06-10T01:54:08.478Z,19.85
2018-06-10T01:55:18.637Z,19.85
2018-06-10T01:56:28.569Z,19.8
2018-06-10T01:57:38.767Z,19.82
2018-06-10T01:58:49.001Z,19.8
2018-06-10T01:59:59.193Z,19.79
2018-06-10T02:01:09.378Z,19.79
2018-06-10T02:02:19.656Z,19.83
2018-06-10T02:03:29.852Z,19.83
2018-06-10T02:04:40.107Z,19.79
2018-06-10T02:05:50.329Z,19.86
2018-06-10T02:07:00.497Z,19.8
2018-06-10T02:08:10.869Z,19.85
2018-06-10T02:09:21.061Z,19.8
2018-06-10T02:10:31.228Z,19.92
2018-06-10T02:11:41.520Z,19.88
2018-06-10T02:12:51.670Z,19.86
2018-06-10T02:14:01.906Z,19.9
2018-06-10T02:15:12.159Z,19.9
2018-06-10T02:16:22.329Z,19.92
2018-06-10T02:17:32.530Z,19.95
2018-06-10T02:18:42.768Z,19.88
2018-06-10T02:19:53.047Z,19.9
2018-06-10T02:21:03.210Z,19.92
2018-06-10T02:22:13.429Z,19.92
2018-06-10T02:23:23.647Z,19.95
2018-06-10T02:24:33.889Z,20
2018-06-10T02:25:44.237Z,19.93
2018-06-10T02:26:54.365Z,19.93
2018-06-10T02:28:04.918Z,19.9
2018-06-10T02:29:15.074Z,19.88
2018-06-10T02:30:25.211Z,19.89
2018-06-10T02:32:49.900Z,19.78
2018-06-10T02:33:59.796Z,19.71
2018-06-10T02:35:09.940Z,19.64
2018-06-10T02:36:20.077Z,19.61
2018-06-10T02:37:30.206Z,19.67
2018-06-10T02:38:40.462Z,19.55
2018-06-10T02:39:50.618Z,19.49
2018-06-10T02:41:00.943Z,19.45
2018-06-10T02:42:11.143Z,19.34
2018-06-10T02:43:21.353Z,19.4
2018-06-10T02:44:32.519Z,19.34
2018-06-10T02:45:42.672Z,19.37
2018-06-10T02:46:52.971Z,19.35
2018-06-10T02:48:03.202Z,19.35
2018-06-10T02:49:13.409Z,19.35
2018-06-10T02:50:23.665Z,19.35
2018-06-10T02:51:33.846Z,19.34
2018-06-10T02:52:44.211Z,19.35
2018-06-10T02:53:54.377Z,19.27
2018-06-10T02:55:04.719Z,19.25
2018-06-10T02:56:14.874Z,19.35
2018-06-10T02:57:25.063Z,19.33
2018-06-10T02:58:35.237Z,19.4
2018-06-10T02:59:45.525Z,19.37
2018-06-10T03:00:55.721Z,19.37
2018-06-10T03:02:05.918Z,19.42
2018-06-10T03:03:16.119Z,19.28
2018-06-10T03:04:26.269Z,19.33
2018-06-10T03:05:36.490Z,19.25
2018-06-10T03:06:46.739Z,19.33
2018-06-10T03:07:57.129Z,19.28
2018-06-10T03:09:07.335Z,19.33
2018-06-10T03:10:17.497Z,19.27
2018-06-10T03:11:27.646Z,19.3
2018-06-10T03:12:37.847Z,19.3
2018-06-10T03:13:48.102Z,19.28
2018-06-10T03:14:58.720Z,19.31
2018-06-10T03:16:09.098Z,19.27
2018-06-10T03:17:19.224Z,19.24
2018-06-10T03:18:29.370Z,19.3
2018-06-10T03:19:39.614Z,19.28
2018-06-10T03:20:49.947Z,19.23
2018-06-10T03:21:59.867Z,19.18
2018-06-10T03:23:10.027Z,19.21
2018-06-10T03:24:20.229Z,19.18
2018-06-10T03:25:30.408Z,19.12
2018-06-10T03:26:40.629Z,19.12
2018-06-10T03:27:50.897Z,19.18
2018-06-10T03:29:01.033Z,19.08
2018-06-10T03:30:11.296Z,19.12
2018-06-10T03:31:21.207Z,19.15
2018-06-10T03:32:31.339Z,19.09
2018-06-10T03:33:41.114Z,19.08
2018-06-10T03:34:51.247Z,19.13
2018-06-10T03:36:01.391Z,19.13
2018-06-10T03:37:11.557Z,19.15
2018-06-10T03:38:21.749Z,19.15
2018-06-10T03:39:31.958Z,19.06
2018-06-10T03:40:42.122Z,19.05
2018-06-10T03:41:52.562Z,19.05
2018-06-10T03:43:02.717Z,18.93
2018-06-10T03:44:12.945Z,18.98
2018-06-10T03:45:23.162Z,18.95
2018-06-10T03:46:33.339Z,18.9
2018-06-10T03:47:43.585Z,18.84
2018-06-10T03:48:53.515Z,18.88
2018-06-10T03:50:03.660Z,18.84
2018-06-10T03:51:13.815Z,18.76
2018-06-10T03:52:23.689Z,18.69
2018-06-10T03:53:34.051Z,18.72
2018-06-10T03:54:44.298Z,18.62
2018-06-10T03:55:54.571Z,18.62
2018-06-10T03:57:04.818Z,18.59
2018-06-10T03:58:14.961Z,18.59
2018-06-10T03:59:25.130Z,18.49
2018-06-10T04:00:35.502Z,18.46
2018-06-10T04:01:46.688Z,18.57
2018-06-10T04:02:56.868Z,18.59
2018-06-10T04:04:06.786Z,18.57
2018-06-10T04:05:16.683Z,18.62
2018-06-10T04:06:26.857Z,18.57
2018-06-10T04:07:37.216Z,18.57
2018-06-10T04:08:47.365Z,18.57
2018-06-10T04:09:57.519Z,18.44
2018-06-10T04:11:07.659Z,18.57
2018-06-10T04:12:17.819Z,18.49
2018-06-10T04:13:28.005Z,18.52
2018-06-10T04:14:38.146Z,18.55
2018-06-10T04:15:48.662Z,18.5
2018-06-10T04:16:58.796Z,18.52
2018-06-10T04:18:08.935Z,18.49
2018-06-10T04:19:19.069Z,18.46
2018-06-10T04:20:29.276Z,18.49
2018-06-10T04:21:39.401Z,18.53
2018-06-10T04:22:49.635Z,18.6
2018-06-10T04:23:59.943Z,18.59
2018-06-10T04:25:09.847Z,18.67
2018-06-10T04:26:20.043Z,18.73
2018-06-10T04:27:30.180Z,18.78
2018-06-10T04:28:40.338Z,18.84
2018-06-10T04:29:50.623Z,18.86
2018-06-10T04:31:00.780Z,18.93
2018-06-10T04:32:10.908Z,18.97
2018-06-10T04:33:21.078Z,19.05
2018-06-10T04:34:31.198Z,19.08
2018-06-10T04:35:41.344Z,19.1
2018-06-10T04:36:51.503Z,19.18
2018-06-10T04:38:01.597Z,19.25
2018-06-10T04:39:11.763Z,19.25
2018-06-10T04:40:21.534Z,19.37
2018-06-10T04:41:31.565Z,19.24
2018-06-10T04:42:41.751Z,19.33
2018-06-10T04:43:51.882Z,19.43
2018-06-10T04:45:02.032Z,19.39
2018-06-10T04:46:11.608Z,19.46
2018-06-10T04:47:21.822Z,19.46
2018-06-10T04:48:31.967Z,19.45
2018-06-10T04:49:41.857Z,19.46
2018-06-10T04:50:52.147Z,19.42
2018-06-10T04:52:02.312Z,19.5
2018-06-10T04:53:12.559Z,19.53
2018-06-10T04:54:22.742Z,19.49
2018-06-10T04:55:32.907Z,19.48
2018-06-10T04:56:43.112Z,19.49
2018-06-10T04:57:53.273Z,19.46
2018-06-10T04:59:03.423Z,19.64
2018-06-10T05:00:13.568Z,19.52
2018-06-10T05:01:23.728Z,19.53
2018-06-10T05:02:33.893Z,19.56
2018-06-10T05:03:44.117Z,19.6
2018-06-10T05:04:54.483Z,19.61
2018-06-10T05:06:04.647Z,19.67
2018-06-10T05:07:14.804Z,19.58
2018-06-10T05:08:25.430Z,19.71
2018-06-10T05:09:35.562Z,19.7
2018-06-10T05:10:45.466Z,19.7
2018-06-10T05:11:55.761Z,19.79
2018-06-10T05:13:05.967Z,19.78
2018-06-10T05:14:16.127Z,19.73
2018-06-10T05:15:26.350Z,19.79
2018-06-10T05:16:36.576Z,19.83
2018-06-10T05:17:46.450Z,19.83
2018-06-10T05:18:56.613Z,19.97
2018-06-10T05:20:07.091Z,19.88
2018-06-10T05:21:17.399Z,19.89
2018-06-10T05:22:27.660Z,19.9
2018-06-10T05:23:37.981Z,19.95
2018-06-10T05:24:47.875Z,20.07
2018-06-10T05:25:58.052Z,20.03
2018-06-10T05:27:08.208Z,19.95
2018-06-10T05:28:18.631Z,19.98
2018-06-10T05:29:28.558Z,20
2018-06-10T05:30:38.708Z,19.93
2018-06-10T05:31:48.888Z,20.05
2018-06-10T05:32:58.764Z,20.08
2018-06-10T05:34:08.896Z,20.11
2018-06-10T05:35:19.092Z,20.05
2018-06-10T05:36:29.294Z,20.2
2018-06-10T05:37:39.205Z,20.31
2018-06-10T05:38:49.362Z,20.28
2018-06-10T05:39:59.495Z,20.36
2018-06-10T05:41:09.724Z,20.48
2018-06-10T05:42:19.858Z,20.45
2018-06-10T05:43:30.147Z,20.53
2018-06-10T05:44:40.422Z,20.54
2018-06-10T05:45:50.623Z,20.53
2018-06-10T05:47:00.833Z,20.63
2018-06-10T05:48:11.100Z,20.71
2018-06-10T05:49:21.245Z,20.75
2018-06-10T05:50:31.473Z,20.78
2018-06-10T05:51:41.851Z,20.83
2018-06-10T05:52:51.974Z,20.79
2018-06-10T05:54:02.058Z,20.91
2018-06-10T05:55:12.242Z,21.01
2018-06-10T05:56:22.404Z,21.04
2018-06-10T05:57:32.544Z,21.1
2018-06-10T05:58:42.720Z,21.1
2018-06-10T05:59:52.605Z,21.13
2018-06-10T06:01:02.755Z,21.15
2018-06-10T06:02:12.938Z,21.22
2018-06-10T06:03:23.104Z,21.22
2018-06-10T06:04:33.251Z,21.25
2018-06-10T06:05:43.640Z,21.22
2018-06-10T06:06:53.818Z,21.35
2018-06-10T06:08:03.967Z,21.28
2018-06-10T06:09:14.146Z,21.2
2018-06-10T06:10:24.552Z,21.2
2018-06-10T06:11:34.682Z,21.22
2018-06-10T06:12:44.840Z,21.33
2018-06-10T06:13:54.999Z,21.35
2018-06-10T06:15:05.226Z,21.43
2018-06-10T06:16:15.123Z,21.43
2018-06-10T06:17:25.279Z,21.35
2018-06-10T06:18:35.462Z,21.45
2018-06-10T06:19:45.641Z,21.5
2018-06-10T06:20:55.941Z,21.46
2018-06-10T06:22:06.335Z,21.48
2018-06-10T06:23:16.515Z,21.57
2018-06-10T06:24:26.668Z,21.57
2018-06-10T06:25:36.880Z,21.54
2018-06-10T06:26:47.055Z,21.5
2018-06-10T06:27:57.297Z,21.56
2018-06-10T06:29:07.435Z,21.54
2018-06-10T06:30:17.638Z,21.48
2018-06-10T06:31:27.849Z,21.41
2018-06-10T06:32:38.112Z,21.43
2018-06-10T06:33:48.334Z,21.49
2018-06-10T06:34:58.255Z,21.5
2018-06-10T06:36:08.456Z,21.57
2018-06-10T06:37:18.619Z,21.54
2018-06-10T06:38:28.778Z,21.69
2018-06-10T06:39:38.959Z,21.71
2018-06-10T06:40:49.128Z,21.71
2018-06-10T06:41:59.331Z,21.76
2018-06-10T06:43:09.534Z,21.78
2018-06-10T06:44:19.493Z,21.78
2018-06-10T06:45:29.650Z,21.86
2018-06-10T06:46:40.046Z,21.94
2018-06-10T06:47:50.252Z,22.05
2018-06-10T06:49:00.232Z,22.02
2018-06-10T06:50:10.408Z,22.01
2018-06-10T06:51:20.684Z,22.02
2018-06-10T06:52:30.955Z,22.15
2018-06-10T06:53:41.230Z,22.24
2018-06-10T06:54:51.382Z,22.26
2018-06-10T06:56:01.607Z,22.34
2018-06-10T06:57:11.818Z,22.33
2018-06-10T06:58:22.129Z,22.48
2018-06-10T06:59:32.336Z,22.45
2018-06-10T07:00:42.826Z,22.48
2018-06-10T07:01:53.097Z,22.35
2018-06-10T07:03:03.305Z,22.46
2018-06-10T07:04:13.582Z,22.45
2018-06-10T07:05:23.673Z,22.46
2018-06-10T07:06:33.871Z,22.53
2018-06-10T07:07:44.008Z,22.58
2018-06-10T07:08:54.152Z,22.6
2018-06-10T07:10:04.380Z,22.57
2018-06-10T07:11:14.577Z,22.53
2018-06-10T07:12:24.803Z,22.65
2018-06-10T07:13:34.968Z,22.68
2018-06-10T07:14:45.148Z,22.76
2018-06-10T07:15:55.421Z,22.76
2018-06-10T07:17:05.580Z,22.83
2018-06-10T07:18:15.776Z,22.8
2018-06-10T07:19:26.207Z,22.87
2018-06-10T07:20:36.374Z,22.89
2018-06-10T07:21:46.559Z,22.89
2018-06-10T07:22:56.737Z,22.86
2018-06-10T07:24:06.940Z,22.83
2018-06-10T07:25:17.166Z,22.8
2018-06-10T07:26:27.388Z,22.8
2018-06-10T07:27:37.616Z,22.8
2018-06-10T07:28:47.856Z,22.89
2018-06-10T07:29:58.024Z,22.89
2018-06-10T07:31:08.284Z,22.83
2018-06-10T07:32:18.446Z,22.86
2018-06-10T07:33:28.876Z,22.86
2018-06-10T07:34:39.370Z,22.86
2018-06-10T07:35:49.577Z,22.71
2018-06-10T07:36:59.747Z,22.76
2018-06-10T07:38:10.027Z,22.75
2018-06-10T07:39:20.189Z,22.79
2018-06-10T07:40:30.489Z,22.85
2018-06-10T07:41:40.789Z,22.89
2018-06-10T07:42:50.969Z,22.98
2018-06-10T07:44:01.398Z,23.02
2018-06-10T07:45:11.560Z,23.17
2018-06-10T07:46:21.737Z,23.21
2018-06-10T07:47:31.905Z,23.38
2018-06-10T07:48:42.291Z,23.35
2018-06-10T07:49:52.447Z,23.5
2018-06-10T07:51:02.695Z,23.6
2018-06-10T07:52:12.823Z,23.73
2018-06-10T07:53:23.085Z,23.8
2018-06-10T07:54:33.257Z,23.91
2018-06-10T07:55:43.458Z,23.97
2018-06-10T07:56:53.624Z,24.06
2018-06-10T07:58:04.063Z,24.13
2018-06-10T07:59:14.238Z,24.13
2018-06-10T08:00:24.391Z,24.35
2018-06-10T08:01:34.595Z,24.31
2018-06-10T08:02:44.755Z,24.44
2018-06-10T08:03:54.918Z,24.57
2018-06-10T08:05:05.112Z,24.63
2018-06-10T08:06:15.311Z,24.63
2018-06-10T08:07:25.519Z,24.73
2018-06-10T08:08:35.782Z,24.78
2018-06-10T08:09:45.980Z,24.88
2018-06-10T08:10:56.145Z,24.9
2018-06-10T08:12:06.362Z,24.97
2018-06-10T08:13:16.590Z,24.97
2018-06-10T08:14:27.278Z,25.03
2018-06-10T08:15:37.504Z,25.12
2018-06-10T08:16:47.877Z,25.21
2018-06-10T08:17:58.054Z,25.19
2018-06-10T08:19:08.388Z,25.21
2018-06-10T08:20:18.570Z,25.18
2018-06-10T08:21:28.733Z,25.18
2018-06-10T08:22:38.961Z,25.17
2018-06-10T08:23:49.135Z,25.17
2018-06-10T08:24:59.377Z,25.21
2018-06-10T08:26:09.646Z,25.22
2018-06-10T08:27:19.873Z,25.1
2018-06-10T08:28:30.468Z,25.17
2018-06-10T08:29:40.510Z,25.17
2018-06-10T08:30:50.941Z,25.02
2018-06-10T08:32:01.279Z,25.15
2018-06-10T08:33:11.655Z,25.13
2018-06-10T08:34:21.606Z,25.22
2018-06-10T08:35:31.816Z,25.34
2018-06-10T08:36:41.998Z,25.47
2018-06-10T08:37:52.231Z,25.65
2018-06-10T08:39:02.413Z,25.69
2018-06-10T08:40:12.606Z,25.94
2018-06-10T08:41:22.799Z,26.15
2018-06-10T08:42:32.948Z,26.25
2018-06-10T08:43:43.524Z,26.4
2018-06-10T08:44:53.786Z,26.49
2018-06-10T08:46:03.964Z,26.61
2018-06-10T08:47:14.157Z,26.77
2018-06-10T08:48:24.345Z,26.92
2018-06-10T08:49:34.561Z,27.07
2018-06-10T08:50:45.264Z,27.24
2018-06-10T08:51:56.468Z,27.41
2018-06-10T08:53:06.672Z,27.53
2018-06-10T08:54:16.905Z,27.71
2018-06-10T08:55:27.151Z,27.83
2018-06-10T08:56:37.395Z,28.05
2018-06-10T08:57:47.598Z,28.2
2018-06-10T08:58:57.538Z,28.64
2018-06-10T09:00:07.753Z,28.92
2018-06-10T09:01:17.958Z,28.98
2018-06-10T09:02:28.153Z,29.26
2018-06-10T09:03:38.389Z,29.38
2018-06-10T09:04:48.589Z,29.29
2018-06-10T09:05:58.807Z,29.31
2018-06-10T09:07:10.971Z,29.18
2018-06-10T09:08:21.990Z,29.31
2018-06-10T09:09:32.249Z,29.23
2018-06-10T09:10:42.499Z,29.13
2018-06-10T09:11:52.760Z,29.14
2018-06-10T09:13:02.957Z,29.47
2018-06-10T09:14:13.189Z,29.5
2018-06-10T09:15:23.394Z,29.7
2018-06-10T09:16:33.571Z,29.99
2018-06-10T09:17:43.791Z,30.07
2018-06-10T09:18:54.026Z,30.12
2018-06-10T09:20:04.454Z,30.04
2018-06-10T09:21:14.398Z,30
2018-06-10T09:22:24.754Z,29.89
2018-06-10T09:23:35.166Z,29.76
2018-06-10T09:24:45.596Z,29.76
2018-06-10T09:25:55.791Z,29.84
2018-06-10T09:27:06.050Z,29.77
2018-06-10T09:28:16.340Z,29.58
2018-06-10T09:29:26.797Z,29.51
2018-06-10T09:30:37.012Z,29.4
2018-06-10T09:31:47.200Z,29.33
2018-06-10T09:32:57.400Z,29.13
2018-06-10T09:34:07.667Z,28.95
2018-06-10T09:35:18.072Z,28.73
2018-06-10T09:36:28.407Z,28.54
2018-06-10T09:37:38.551Z,28.32
2018-06-10T09:38:48.934Z,28.2
2018-06-10T09:39:59.109Z,28.09
2018-06-10T09:41:09.307Z,28.07
2018-06-10T09:42:19.479Z,28.09
2018-06-10T09:43:29.716Z,28.32
2018-06-10T09:44:40.649Z,28.49
2018-06-10T09:45:50.850Z,28.64
2018-06-10T09:47:01.059Z,28.72
2018-06-10T09:48:11.226Z,28.72
2018-06-10T09:49:21.434Z,28.7
2018-06-10T09:50:31.612Z,28.77
2018-06-10T09:51:41.829Z,28.91
2018-06-10T09:52:52.316Z,29.01
2018-06-10T09:54:02.486Z,28.99
2018-06-10T09:55:12.994Z,28.96
2018-06-10T09:56:23.558Z,28.89
2018-06-10T09:57:33.505Z,28.74
2018-06-10T09:58:43.692Z,28.65
2018-06-10T09:59:53.887Z,28.31
2018-06-10T10:01:04.137Z,28.34
2018-06-10T10:02:14.363Z,28.23
2018-06-10T10:03:24.581Z,27.97
2018-06-10T10:04:34.821Z,27.92
2018-06-10T10:05:45.015Z,27.77
2018-06-10T10:06:55.241Z,27.68
2018-06-10T10:08:05.421Z,27.6
2018-06-10T10:09:15.637Z,27.57
2018-06-10T10:10:25.825Z,27.49
2018-06-10T10:11:36.094Z,27.43
2018-06-10T10:12:46.349Z,27.46
2018-06-10T10:13:56.564Z,27.55
2018-06-10T10:15:06.762Z,27.64
2018-06-10T10:16:16.717Z,27.71
2018-06-10T10:17:26.909Z,27.74
2018-06-10T10:18:37.147Z,27.86
2018-06-10T10:19:47.337Z,27.74
2018-06-10T10:20:57.547Z,27.74
2018-06-10T10:22:07.524Z,27.8
2018-06-10T10:23:17.724Z,27.64
2018-06-10T10:24:28.043Z,27.71
2018-06-10T10:25:38.393Z,27.64
2018-06-10T10:26:48.645Z,27.74
2018-06-10T10:27:58.825Z,27.77
2018-06-10T10:29:09.030Z,27.79
2018-06-10T10:30:19.476Z,28
2018-06-10T10:31:30.025Z,28.14
2018-06-10T10:32:40.483Z,28.39
2018-06-10T10:33:50.747Z,28.5
2018-06-10T10:35:01.097Z,28.79
2018-06-10T10:36:11.162Z,29.01
2018-06-10T10:37:21.382Z,29.17
2018-06-10T10:38:31.893Z,29.5
2018-06-10T10:39:42.297Z,29.51
2018-06-10T10:40:52.479Z,29.58
2018-06-10T10:42:02.843Z,29.76
2018-06-10T10:43:13.029Z,29.89
2018-06-10T10:44:23.237Z,30.04
2018-06-10T10:45:33.456Z,29.89
2018-06-10T10:46:43.845Z,29.87
2018-06-10T10:47:54.020Z,29.76
2018-06-10T10:49:04.366Z,30
2018-06-10T10:50:14.647Z,30.04
2018-06-10T10:51:24.948Z,30.2
2018-06-10T10:52:36.219Z,30.3
2018-06-10T10:53:46.529Z,30.32
2018-06-10T10:54:56.753Z,30.33
2018-06-10T10:56:07.167Z,30.25
2018-06-10T10:57:17.955Z,30.29
2018-06-10T10:58:28.388Z,30.12
2018-06-10T10:59:38.583Z,30.17
2018-06-10T11:00:48.778Z,30.1
2018-06-10T11:01:59.210Z,30.04
2018-06-10T11:03:09.417Z,29.89
2018-06-10T11:04:19.645Z,29.69
2018-06-10T11:05:29.559Z,29.57
2018-06-10T11:06:39.796Z,29.55
2018-06-10T11:07:50.165Z,29.48
2018-06-10T11:09:00.393Z,29.21
2018-06-10T11:10:10.603Z,29.29
2018-06-10T11:11:20.844Z,29.13
2018-06-10T11:12:31.032Z,29.14
2018-06-10T11:13:41.234Z,29.03
2018-06-10T11:14:51.676Z,29.02
2018-06-10T11:16:02.365Z,28.84
2018-06-10T11:17:12.669Z,28.81
2018-06-10T11:18:22.889Z,28.65
2018-06-10T11:19:33.026Z,28.46
2018-06-10T11:20:43.248Z,28.5
2018-06-10T11:21:53.464Z,28.27
2018-06-10T11:23:03.711Z,28.17
2018-06-10T11:24:13.708Z,28.01
2018-06-10T11:25:23.909Z,27.87
2018-06-10T11:26:34.130Z,27.7
2018-06-10T11:27:44.435Z,27.53
2018-06-10T11:28:54.845Z,27.37
2018-06-10T11:30:05.082Z,27.34
2018-06-10T11:31:15.394Z,27.23
2018-06-10T11:32:25.601Z,27.28
2018-06-10T11:33:35.928Z,27.42
2018-06-10T11:34:46.151Z,27.6
2018-06-10T11:35:56.113Z,27.77
2018-06-10T11:37:06.306Z,27.8
2018-06-10T11:38:16.537Z,27.72
2018-06-10T11:39:27.112Z,27.71
2018-06-10T11:40:37.380Z,27.71
2018-06-10T11:41:47.609Z,27.76
2018-06-10T11:42:58.099Z,27.76
2018-06-10T11:44:08.419Z,27.79
2018-06-10T11:45:18.683Z,27.77
2018-06-10T11:46:28.861Z,27.71
2018-06-10T11:47:39.067Z,27.71
2018-06-10T11:48:49.275Z,27.7
2018-06-10T11:49:59.527Z,27.61
2018-06-10T11:51:09.871Z,27.65
2018-06-10T11:52:20.455Z,27.63
2018-06-10T11:53:30.684Z,27.48
2018-06-10T11:54:40.882Z,27.48
2018-06-10T11:55:51.173Z,27.35
2018-06-10T11:57:01.620Z,27.33
2018-06-10T11:58:12.173Z,27.35
2018-06-10T11:59:22.477Z,27.31
2018-06-10T12:00:32.654Z,27.28
2018-06-10T12:01:42.927Z,27.26
2018-06-10T12:02:53.149Z,27.14
2018-06-10T12:04:03.354Z,27.14
2018-06-10T12:05:13.764Z,27.1
2018-06-10T12:06:24.245Z,27.2
2018-06-10T12:07:34.430Z,27.12
2018-06-10T12:08:44.614Z,27.17
2018-06-10T12:09:54.846Z,27.05
2018-06-10T12:11:05.110Z,26.99
2018-06-10T12:12:15.338Z,27.14
2018-06-10T12:13:25.427Z,27.17
2018-06-10T12:14:35.713Z,27.12
2018-06-10T12:15:45.947Z,27.19
2018-06-10T12:16:55.923Z,27.28
2018-06-10T12:18:06.144Z,27.11
2018-06-10T12:19:16.476Z,27.12
2018-06-10T12:20:26.903Z,27.11
2018-06-10T12:21:37.080Z,27.08
2018-06-10T12:22:47.684Z,27.1
2018-06-10T12:23:58.413Z,27.1
2018-06-10T12:25:08.659Z,27.01
2018-06-10T12:26:18.902Z,26.93
2018-06-10T12:27:29.144Z,26.96
2018-06-10T12:28:39.478Z,26.93
2018-06-10T12:29:49.710Z,26.83
2018-06-10T12:30:59.890Z,26.92
2018-06-10T12:32:10.159Z,26.88
2018-06-10T12:33:20.199Z,26.78
2018-06-10T12:34:30.418Z,26.71
2018-06-10T12:35:40.715Z,26.68
2018-06-10T12:36:50.959Z,26.55
2018-06-10T12:38:02.126Z,26.37
2018-06-10T12:39:12.660Z,26.3
2018-06-10T12:40:22.887Z,26.18
2018-06-10T12:41:33.246Z,26.25
2018-06-10T12:42:43.647Z,26.11
2018-06-10T12:43:54.059Z,26.12
2018-06-10T12:45:04.377Z,26.04
2018-06-10T12:46:14.679Z,25.97
2018-06-10T12:47:24.869Z,25.92
2018-06-10T12:48:35.075Z,25.9
2018-06-10T12:49:45.353Z,25.85
2018-06-10T12:50:55.519Z,25.9
2018-06-10T12:52:05.728Z,25.9
2018-06-10T12:53:15.978Z,25.84
2018-06-10T12:54:26.227Z,25.87
2018-06-10T12:55:36.470Z,25.88
2018-06-10T12:56:46.695Z,25.78
2018-06-10T12:57:57.286Z,25.69
2018-06-10T12:59:07.499Z,25.68
2018-06-10T13:00:17.783Z,25.66
2018-06-10T13:01:28.020Z,25.66
2018-06-10T13:02:38.309Z,25.54
2018-06-10T13:03:48.529Z,25.43
2018-06-10T13:04:58.716Z,25.49
2018-06-10T13:06:08.944Z,25.5
2018-06-10T13:07:19.169Z,25.46
2018-06-10T13:08:29.414Z,25.47
2018-06-10T13:09:39.712Z,25.42
2018-06-10T13:10:49.685Z,25.4
2018-06-10T13:11:59.863Z,25.39
2018-06-10T13:13:10.183Z,25.34
2018-06-10T13:14:20.403Z,25.47
2018-06-10T13:15:30.831Z,25.37
2018-06-10T13:16:41.090Z,25.39
2018-06-10T13:17:51.336Z,25.39
2018-06-10T13:19:01.557Z,25.42
2018-06-10T13:20:12.088Z,25.37
2018-06-10T13:21:22.330Z,25.4
2018-06-10T13:22:32.545Z,25.44
2018-06-10T13:23:42.744Z,25.55
2018-06-10T13:24:52.944Z,25.62
2018-06-10T13:26:03.149Z,25.64
2018-06-10T13:27:13.458Z,25.56
2018-06-10T13:28:23.654Z,25.65
2018-06-10T13:29:33.928Z,25.71
2018-06-10T13:30:44.131Z,25.64
2018-06-10T13:31:54.379Z,25.71
2018-06-10T13:33:04.592Z,25.66
2018-06-10T13:34:14.824Z,25.69
2018-06-10T13:35:25.054Z,25.69
2018-06-10T13:36:35.247Z,25.73
2018-06-10T13:37:45.466Z,25.73
2018-06-10T13:38:55.658Z,25.78
2018-06-10T13:40:05.904Z,25.92
2018-06-10T13:41:16.118Z,25.88
2018-06-10T13:42:26.337Z,25.84
2018-06-10T13:43:36.593Z,25.92
2018-06-10T13:44:46.830Z,25.99
2018-06-10T13:45:57.080Z,26.15
2018-06-10T13:47:07.174Z,26.18
2018-06-10T13:48:18.897Z,26.18
2018-06-10T13:49:29.110Z,26.3
2018-06-10T13:50:39.374Z,26.33
2018-06-10T13:51:49.574Z,26.46
2018-06-10T13:52:59.915Z,26.55
2018-06-10T13:54:10.215Z,26.64
2018-06-10T13:55:20.592Z,26.74
2018-06-10T13:56:30.865Z,26.71
2018-06-10T13:57:41.050Z,26.71
2018-06-10T13:58:51.276Z,26.77
2018-06-10T14:00:01.568Z,26.78
2018-06-10T14:01:11.804Z,26.8
2018-06-10T14:02:21.997Z,26.86
2018-06-10T14:03:32.337Z,26.77
2018-06-10T14:04:42.570Z,26.77
2018-06-10T14:05:52.992Z,26.77
2018-06-10T14:07:02.997Z,26.78
2018-06-10T14:08:13.216Z,26.73
2018-06-10T14:09:23.242Z,26.7
2018-06-10T14:10:33.551Z,26.78
2018-06-10T14:11:43.783Z,26.68
2018-06-10T14:12:54.066Z,26.71
2018-06-10T14:14:04.319Z,26.56
2018-06-10T14:15:14.613Z,26.53
2018-06-10T14:16:24.998Z,26.41
2018-06-10T14:17:34.999Z,26.34
2018-06-10T14:18:45.257Z,26.21
2018-06-10T14:19:55.239Z,26.14
2018-06-10T14:21:05.449Z,26.06
2018-06-10T14:22:15.807Z,26.07
2018-06-10T14:23:26.019Z,25.99
2018-06-10T14:24:36.259Z,25.93
2018-06-10T14:25:46.635Z,25.82
2018-06-10T14:26:57.012Z,25.78
2018-06-10T14:28:07.277Z,25.66
2018-06-10T14:29:17.502Z,25.64
2018-06-10T14:30:27.555Z,25.64
2018-06-10T14:31:37.893Z,25.59
2018-06-10T14:32:48.114Z,25.71
2018-06-10T14:33:58.607Z,25.65
2018-06-10T14:35:08.851Z,25.62
2018-06-10T14:36:19.074Z,25.64
2018-06-10T14:37:29.502Z,25.66
2018-06-10T14:38:39.745Z,25.69
2018-06-10T14:39:50.024Z,25.71
2018-06-10T14:41:00.295Z,25.68
2018-06-10T14:42:10.418Z,25.71
2018-06-10T14:43:20.697Z,25.69
2018-06-10T14:44:31.049Z,25.65
2018-06-10T14:45:41.294Z,25.69
2018-06-10T14:46:52.495Z,25.66
2018-06-10T14:48:02.768Z,25.73
2018-06-10T14:49:12.950Z,25.59
2018-06-10T14:50:23.169Z,25.64
2018-06-10T14:51:33.384Z,25.61
2018-06-10T14:52:43.599Z,25.54
2018-06-10T14:53:53.809Z,25.46
2018-06-10T14:55:04.267Z,25.42
2018-06-10T14:56:14.673Z,25.36
2018-06-10T14:57:24.881Z,25.28
2018-06-10T14:58:35.309Z,25.25
2018-06-10T14:59:45.547Z,25.25
2018-06-10T15:00:55.761Z,25.21
2018-06-10T15:02:05.972Z,25.21
2018-06-10T15:03:16.180Z,25.18
2018-06-10T15:04:26.407Z,25.1
2018-06-10T15:05:36.619Z,25.02
2018-06-10T15:06:46.827Z,24.92
2018-06-10T15:07:57.129Z,24.9
2018-06-10T15:09:07.105Z,25.02
2018-06-10T15:10:17.198Z,25